Casper, WY (82604)

6:51 AM MDT on April 28, 2015 (GMT -0600)
PV 9th hole | | Change Station
CLOSE
Current Station
Personal Weather Station
Location: Casper, WY
Elevation: 5161 ft
Nearby Weather Stations

Elev 5161 ft 42.82 °N, 106.40 °W | Updated 15 seconds ago

Clear
Clear
35.1 °F
Feels Like 35 °F
N
0.0
Wind Variable Wind from SE
Gusts 0.0 mph

Today
High -- | Low -- °F
--% Chance of Precip.
Yesterday
High -- | Low -- °F
Precip. -- in
6:04 AM 8:02 PM
Waxing Gibbous, 73% visible
Pressure 30.34 in
Visibility 10.0 miles
Clouds Clear
Windchill 35 °F
Dew Point 35 °F
Humidity 99%
Rainfall 0.00 in
Snow Depth Not available.
UV 1.0 out of 12
Pollen 5.20 out of 12
Air Quality Not available.
Flu Activity Local Activity
METAR KCPR 281153Z 24005KT 10SM CLR M01/M02 A3032 RMK AO2 SLP274 70001 T10061022 10061 21011 58002

More Conditions Fewer Conditions

Pressure 30.34 in
Visibility 10.0 miles
Clouds Clear
Windchill 35 °F
Dew Point 35 °F
Humidity 99%
Rainfall 0.00 in
Snow Depth Not available.
UV 1.0 out of 12
Pollen 5.20 out of 12
Air Quality Not available.
Flu Activity Local Activity
METAR KCPR 281153Z 24005KT 10SM CLR M01/M02 A3032 RMK AO2 SLP274 70001 T10061022 10061 21011 58002

More Conditions Fewer Conditions

10-Day Weather Forecast

Almanac

Astronomy

Apr. 28, 2015 Rise Set
Actual Time
Civil Twilight
Nautical Twilight
Astronomical Twilight
Moon
Length of Visible Light
Length of Day
Tomorrow will be .
, % of the Moon is Illuminated

Today's Extremes

State Highs State Lows

Community

WunderPhotos

Upload Photos

1,817,618 photos uploaded!

WunderBlogs® & News

Nearby

Air Quality

  Air Quality AQ Index Pollutant
Not available.

Snow Depth

Station Depth Elevation

Earthquake Activity

City Distance Mag. Time & Date
Minimum magnitude displayed is 2.5.

Coastal Water Temperatures

Place Temperature

Stations

Nearby Weather Stations

Station Location Temp. Windchill Dew Point Humidity Wind Precip. Elev Updated Type